createdAt,value
2022-09-06T00:00:06.549Z,3.7
2022-09-06T00:02:09.836Z,2.8
2022-09-06T00:04:15.250Z,3.2
2022-09-06T00:06:16.260Z,2.7
2022-09-06T00:08:19.492Z,2.9
2022-09-06T00:10:25.672Z,2.4
2022-09-06T00:12:28.878Z,3.9
2022-09-06T00:14:32.084Z,2.9
2022-09-06T00:15:35.281Z,3.3
2022-09-06T00:17:38.465Z,3.1
2022-09-06T00:19:41.800Z,2.6
2022-09-06T00:21:44.986Z,3.1
2022-09-06T00:23:51.189Z,3
2022-09-06T00:27:57.618Z,2.7
2022-09-06T00:32:04.074Z,2.4
2022-09-06T00:34:07.365Z,3.5
2022-09-06T00:36:10.543Z,3.2
2022-09-06T00:38:16.749Z,2.3
2022-09-06T00:40:19.976Z,3
2022-09-06T00:42:23.227Z,2.1
2022-09-06T00:44:26.442Z,2.4
2022-09-06T00:50:36.136Z,2.5
2022-09-06T00:52:42.381Z,2.4
2022-09-06T00:54:46.755Z,2.2
2022-09-06T00:56:48.858Z,2.2
2022-09-06T01:05:01.838Z,2.3
2022-09-06T01:07:08.105Z,3.5
2022-09-06T01:09:11.348Z,2
2022-09-06T01:11:14.572Z,2.4
2022-09-06T01:12:17.713Z,2.9
2022-09-06T01:14:20.925Z,2.8
2022-09-06T01:16:24.162Z,3.1
2022-09-06T01:18:27.477Z,2.3
2022-09-06T01:22:36.979Z,3
2022-09-06T01:24:40.205Z,2.9
2022-09-06T01:26:43.441Z,2.7
2022-09-06T01:28:46.643Z,3.4
2022-09-06T01:34:59.426Z,3.3
2022-09-06T01:37:09.840Z,2.8
2022-09-06T01:39:05.882Z,3
2022-09-06T01:41:09.140Z,2.9
2022-09-06T01:43:12.384Z,3.6
2022-09-06T01:45:15.617Z,3.4
2022-09-06T01:49:25.123Z,4.3
2022-09-06T01:51:28.387Z,3.9
2022-09-06T01:53:31.628Z,3.3
2022-09-06T01:55:34.959Z,3.2
2022-09-06T01:57:38.231Z,3.1
2022-09-06T01:59:41.578Z,2.9
2022-09-06T02:03:51.203Z,3.6
2022-09-06T02:05:54.469Z,3.6
2022-09-06T02:07:57.815Z,3.1
2022-09-06T02:09:00.950Z,3.9
2022-09-06T02:13:07.663Z,3.7
2022-09-06T02:15:11.023Z,3.7
2022-09-06T02:17:17.392Z,3.1
2022-09-06T02:19:20.744Z,3.4
2022-09-06T02:21:24.013Z,3.2
2022-09-06T02:23:27.263Z,3.9
2022-09-06T02:25:30.536Z,3.7
2022-09-06T02:27:33.884Z,4
2022-09-06T02:29:37.242Z,3.9
2022-09-06T02:31:43.538Z,4
2022-09-06T02:33:46.790Z,3.4
2022-09-06T02:35:50.165Z,4.5
2022-09-06T02:39:56.918Z,4.1
2022-09-06T02:42:00.237Z,4.4
2022-09-06T02:44:03.522Z,4.4
2022-09-06T02:46:09.976Z,4.4
2022-09-06T02:50:16.538Z,4.2
2022-09-06T02:52:20.640Z,4.1
2022-09-06T02:54:23.979Z,4.5
2022-09-06T02:56:27.249Z,3.8
2022-09-06T02:58:30.629Z,3.8
2022-09-06T03:00:37.121Z,4.9
2022-09-06T03:02:40.461Z,4.8
2022-09-06T03:04:43.782Z,4.8
2022-09-06T03:07:01.678Z,5.3
2022-09-06T03:09:05.047Z,4.8
2022-09-06T03:11:08.497Z,4.6
2022-09-06T03:13:14.921Z,5.5
2022-09-06T03:15:18.183Z,5.3
2022-09-06T03:17:21.601Z,5.5
2022-09-06T03:19:24.932Z,4.9
2022-09-06T03:21:28.208Z,4.3
2022-09-06T03:23:31.470Z,4.9
2022-09-06T03:31:47.680Z,6.8
2022-09-06T03:33:51.039Z,6.4
2022-09-06T03:35:54.330Z,6.7
2022-09-06T03:40:01.100Z,6.6
2022-09-06T03:42:07.531Z,7.7
2022-09-06T03:44:10.909Z,6.7
2022-09-06T03:46:14.304Z,7.3
2022-09-06T03:48:17.516Z,7.2
2022-09-06T03:50:20.803Z,7.7
2022-09-06T03:52:24.046Z,7.4
2022-09-06T03:54:27.436Z,7.4
2022-09-06T03:56:33.814Z,7.2
2022-09-06T03:58:37.202Z,7.5
2022-09-06T04:00:40.565Z,8.6
2022-09-06T04:01:43.897Z,7.5
2022-09-06T04:03:47.185Z,8.2
2022-09-06T04:05:50.571Z,6.5
2022-09-06T04:12:03.643Z,7.6
2022-09-06T04:14:07.034Z,8.6
2022-09-06T04:16:10.417Z,8.2
2022-09-06T04:18:13.782Z,7.8
2022-09-06T04:20:17.140Z,7.9
2022-09-06T04:22:20.515Z,7.7
2022-09-06T04:24:27.004Z,9.3
2022-09-06T04:26:30.419Z,8.6
2022-09-06T04:30:37.164Z,8.4
2022-09-06T04:32:40.569Z,8.3
2022-09-06T04:36:48.480Z,8.7
2022-09-06T04:40:57.310Z,8.4
2022-09-06T04:43:00.499Z,9.3
2022-09-06T04:45:03.910Z,9.7
2022-09-06T04:47:09.554Z,9.2
2022-09-06T04:49:10.674Z,9.9
2022-09-06T04:51:14.107Z,8.6
2022-09-06T04:55:23.993Z,9.5
2022-09-06T04:57:27.980Z,8.7
2022-09-06T04:58:30.533Z,9.7
2022-09-06T05:00:33.925Z,9.8
2022-09-06T05:02:37.367Z,10.2
2022-09-06T05:06:47.215Z,9.5
2022-09-06T05:08:50.611Z,9.2
2022-09-06T05:10:54.000Z,8.8
2022-09-06T05:12:57.402Z,10.5
2022-09-06T05:15:00.802Z,9.3
2022-09-06T05:17:04.191Z,9.1
2022-09-06T05:23:17.480Z,10.8
2022-09-06T05:29:30.594Z,11.3
2022-09-06T05:31:32.641Z,10.7
2022-09-06T05:33:36.046Z,10.6
2022-09-06T05:35:42.577Z,11.3
2022-09-06T05:39:49.441Z,10.8
2022-09-06T05:41:52.755Z,9.5
2022-09-06T05:43:56.176Z,11
2022-09-06T05:45:59.657Z,10.4
2022-09-06T05:55:19.515Z,10.4
2022-09-06T05:57:22.930Z,11.7
2022-09-06T05:59:26.313Z,9.7
2022-09-06T06:01:29.759Z,10.8
2022-09-06T06:03:36.212Z,11.9
2022-09-06T06:05:39.617Z,10.7
2022-09-06T06:07:43.008Z,10.2
2022-09-06T06:09:46.416Z,9.7
2022-09-06T06:11:49.808Z,10.9
2022-09-06T06:13:53.191Z,10.6
2022-09-06T06:15:56.571Z,11.2
2022-09-06T06:18:03.081Z,13.6
2022-09-06T06:20:06.440Z,11.7
2022-09-06T06:22:09.858Z,11.7
2022-09-06T06:24:13.251Z,12
2022-09-06T06:26:16.653Z,11.5
2022-09-06T06:28:19.996Z,12.2
2022-09-06T06:32:29.945Z,12.7
2022-09-06T06:36:36.715Z,12.7
2022-09-06T06:38:40.100Z,13.6
2022-09-06T06:42:46.899Z,15.3
2022-09-06T06:44:50.264Z,14.7
2022-09-06T06:46:56.591Z,13.9
2022-09-06T06:48:59.967Z,11.8
2022-09-06T06:51:03.531Z,12.6
2022-09-06T06:53:27.204Z,11.9
2022-09-06T06:57:33.961Z,10.9
2022-09-06T06:59:40.382Z,10.1
2022-09-06T07:01:43.801Z,9.9
2022-09-06T07:03:47.044Z,9.2
2022-09-06T07:06:13.273Z,10.5
2022-09-06T07:07:53.800Z,9.7
2022-09-06T07:12:00.545Z,8.6
2022-09-06T07:14:07.031Z,8.5
2022-09-06T07:18:13.760Z,7.1
2022-09-06T07:20:17.170Z,7.9
2022-09-06T07:22:20.387Z,7.1
2022-09-06T07:26:26.860Z,6.5
2022-09-06T07:28:33.123Z,7.4
2022-09-06T07:30:36.369Z,6.5
2022-09-06T07:32:39.615Z,5.5
2022-09-06T07:34:42.834Z,5.1
2022-09-06T07:36:46.054Z,4.4
2022-09-06T07:38:49.271Z,4.6
2022-09-06T07:40:57.857Z,4.2
2022-09-06T07:43:29.117Z,4.1
2022-09-06T07:54:30.513Z,3.8
2022-09-06T07:56:24.114Z,5.1
2022-09-06T07:58:27.299Z,4.3
2022-09-06T08:04:36.847Z,4.6
2022-09-06T08:10:49.370Z,5
2022-09-06T08:12:52.517Z,4.2
2022-09-06T08:14:55.678Z,4.7
2022-09-06T08:16:58.814Z,4.6
2022-09-06T08:19:01.974Z,4.7
2022-09-06T08:21:06.343Z,4.7
2022-09-06T08:23:08.265Z,4.9
2022-09-06T08:25:14.445Z,4.9
2022-09-06T08:27:17.570Z,4.9
2022-09-06T08:29:20.679Z,4.9
2022-09-06T08:31:23.913Z,4.7
2022-09-06T08:33:27.309Z,5.1
2022-09-06T08:35:30.008Z,5.6
2022-09-06T08:37:33.124Z,4.7
2022-09-06T08:39:39.319Z,5.6
2022-09-06T08:41:42.329Z,4.3
2022-09-06T08:44:56.674Z,4
2022-09-06T08:46:51.635Z,4.4
2022-09-06T08:48:54.581Z,3.8
2022-09-06T08:50:57.630Z,4.1
2022-09-06T08:57:09.801Z,3.9
2022-09-06T08:59:12.850Z,4
2022-09-06T09:01:15.931Z,3.7
2022-09-06T09:05:21.924Z,3.3
2022-09-06T09:07:27.979Z,3.6
2022-09-06T09:09:31.012Z,4
2022-09-06T09:11:34.037Z,3.7
2022-09-06T09:13:37.022Z,2.9
2022-09-06T09:15:40.596Z,3.2
2022-09-06T09:19:46.103Z,2.9
2022-09-06T09:25:58.195Z,3.4
2022-09-06T09:28:01.216Z,3.7
2022-09-06T09:32:07.319Z,3.9
2022-09-06T09:34:10.246Z,3.7
2022-09-06T09:36:16.311Z,4.3
2022-09-06T09:38:19.294Z,4.4
2022-09-06T09:41:25.347Z,5.2
2022-09-06T09:43:28.370Z,3.8
2022-09-06T09:45:31.376Z,3.2
2022-09-06T09:47:34.399Z,4.4
2022-09-06T09:49:40.436Z,4.7
2022-09-06T09:51:43.448Z,4.7
2022-09-06T09:53:46.414Z,3.9
2022-09-06T09:55:49.573Z,4
2022-09-06T09:57:52.412Z,4.4
2022-09-06T09:59:55.403Z,4.2
2022-09-06T10:01:58.378Z,3.9
2022-09-06T10:10:13.367Z,3.8
2022-09-06T10:12:16.240Z,3
2022-09-06T10:14:19.157Z,4
2022-09-06T10:16:22.172Z,3.7
2022-09-06T10:18:28.194Z,4
2022-09-06T10:20:31.024Z,4
2022-09-06T10:22:33.955Z,3.8
2022-09-06T10:34:54.508Z,3.6
2022-09-06T10:36:57.418Z,3.8
2022-09-06T10:39:24.776Z,3.8
2022-09-06T10:41:27.663Z,4.3
2022-09-06T10:43:30.529Z,5.6
2022-09-06T10:45:36.510Z,4.2
2022-09-06T10:47:39.414Z,4.1
2022-09-06T10:49:42.326Z,3.7
2022-09-06T10:51:45.224Z,4.4
2022-09-06T10:53:48.131Z,4.7
2022-09-06T10:55:51.025Z,3.8
2022-09-06T10:58:17.875Z,3.8
2022-09-06T10:59:59.912Z,3.9
2022-09-06T11:02:02.928Z,3.7
2022-09-06T11:04:08.012Z,3.3
2022-09-06T11:12:17.124Z,2.7
2022-09-06T11:16:25.983Z,3.2
2022-09-06T11:18:28.779Z,2.8
2022-09-06T11:22:34.318Z,2.1
2022-09-06T11:24:38.626Z,2.1
2022-09-06T11:26:41.361Z,1.5
2022-09-06T11:28:47.180Z,1.9
2022-09-06T11:32:52.593Z,1.8
2022-09-06T11:35:58.191Z,1.9
2022-09-06T11:40:30.662Z,1.3
2022-09-06T11:42:09.196Z,1.6
2022-09-06T11:44:11.818Z,1.6
2022-09-06T11:46:17.474Z,1.3
2022-09-06T11:48:16.982Z,1.5
2022-09-06T11:50:19.581Z,2.1
2022-09-06T11:52:22.115Z,1.8
2022-09-06T11:54:24.659Z,1.3
2022-09-06T11:56:30.328Z,1.8
2022-09-06T12:02:38.212Z,1.5
2022-09-06T12:04:40.438Z,1.6
2022-09-06T12:06:42.990Z,2.2
2022-09-06T12:08:45.531Z,1.7
2022-09-06T12:10:51.208Z,1.6
2022-09-06T12:14:56.267Z,1.1
2022-09-06T12:16:58.847Z,1.1
2022-09-06T12:19:01.343Z,1.2
2022-09-06T12:21:03.858Z,1.1
2022-09-06T12:23:06.420Z,0.8
2022-09-06T12:25:12.058Z,1.6
2022-09-06T12:27:14.605Z,1
2022-09-06T12:29:17.174Z,1
2022-09-06T12:32:22.583Z,1.5
2022-09-06T12:34:25.157Z,1
2022-09-06T12:36:27.766Z,0.8
2022-09-06T12:38:33.436Z,0.8
2022-09-06T12:40:36.016Z,1.1
2022-09-06T12:42:38.610Z,1.8
2022-09-06T12:44:41.177Z,1.3
2022-09-06T12:46:43.806Z,1.1
2022-09-06T12:48:46.344Z,0.9
2022-09-06T12:50:48.898Z,1
2022-09-06T12:52:54.595Z,1.1
2022-09-06T12:54:57.205Z,1.2
2022-09-06T12:57:01.796Z,0.9
2022-09-06T12:59:02.394Z,1.3
2022-09-06T13:01:05.030Z,1.3
2022-09-06T13:03:07.649Z,1
2022-09-06T13:05:10.274Z,1
2022-09-06T13:07:16.023Z,1.2
2022-09-06T13:09:18.683Z,1.6
2022-09-06T13:11:21.345Z,1.4
2022-09-06T13:13:23.994Z,1.1
2022-09-06T13:15:26.646Z,1
2022-09-06T13:17:29.318Z,1
2022-09-06T13:19:31.956Z,1
2022-09-06T13:21:37.679Z,1.3
2022-09-06T13:23:40.320Z,1.5
2022-09-06T13:25:42.979Z,0.7
2022-09-06T13:26:46.221Z,1.7
2022-09-06T13:28:48.519Z,1.1
2022-09-06T13:30:51.182Z,1.2
2022-09-06T13:32:53.785Z,1.2
2022-09-06T13:34:59.536Z,1.4
2022-09-06T13:37:02.298Z,1.3
2022-09-06T13:39:04.871Z,1.3
2022-09-06T13:41:14.628Z,1.1
2022-09-06T13:43:10.245Z,1.3
2022-09-06T13:45:12.915Z,0.9
2022-09-06T13:47:15.572Z,1.6
2022-09-06T13:49:21.363Z,1.2
2022-09-06T13:51:24.023Z,1.2
2022-09-06T13:53:26.666Z,1.2
2022-09-06T13:55:29.254Z,0.6
2022-09-06T13:57:31.854Z,1.1
2022-09-06T13:59:34.466Z,1.3
2022-09-06T14:01:37.060Z,0.9
2022-09-06T14:03:42.636Z,1.3
2022-09-06T14:05:45.164Z,1
2022-09-06T14:07:47.660Z,1.7
2022-09-06T14:09:50.165Z,1.3
2022-09-06T14:11:52.604Z,1
2022-09-06T14:13:55.089Z,1
2022-09-06T14:15:57.561Z,0.9
2022-09-06T14:20:05.539Z,1.1
2022-09-06T14:22:07.991Z,0.7
2022-09-06T14:24:30.814Z,1.2
2022-09-06T14:26:33.294Z,1.1
2022-09-06T14:34:46.479Z,1
2022-09-06T14:38:51.635Z,1.2
2022-09-06T14:40:54.246Z,1
2022-09-06T14:42:56.880Z,1.2
2022-09-06T14:45:02.666Z,1.1
2022-09-06T14:47:05.269Z,1.2
2022-09-06T14:49:07.940Z,1.4
2022-09-06T14:51:10.651Z,1.2
2022-09-06T14:53:36.712Z,1.2
2022-09-06T14:55:16.056Z,1.1
2022-09-06T14:57:18.762Z,1.3
2022-09-06T14:59:24.589Z,1
2022-09-06T15:01:27.496Z,0.8
2022-09-06T15:03:30.180Z,1.1
2022-09-06T15:05:32.822Z,1.2
2022-09-06T15:07:35.593Z,0.9
2022-09-06T15:09:38.359Z,0.8
2022-09-06T15:11:41.105Z,1.1
2022-09-06T15:15:49.812Z,0.9
2022-09-06T15:17:52.532Z,0.9
2022-09-06T15:18:55.451Z,1.2
2022-09-06T15:23:24.309Z,0.7
2022-09-06T15:25:03.860Z,0.9
2022-09-06T15:27:09.737Z,1
2022-09-06T15:29:12.544Z,0.9
2022-09-06T15:31:15.447Z,0.9
2022-09-06T15:35:20.956Z,1
2022-09-06T15:47:40.988Z,0.8
2022-09-06T15:49:43.802Z,1
2022-09-06T16:00:01.055Z,0.9
2022-09-06T16:06:25.378Z,1
2022-09-06T16:08:12.414Z,1.1
2022-09-06T16:12:21.181Z,1.4
2022-09-06T16:14:24.008Z,1.3
2022-09-06T16:15:26.955Z,1.1
2022-09-06T16:17:29.772Z,1.1
2022-09-06T16:19:32.611Z,0.8
2022-09-06T16:21:35.459Z,1.2
2022-09-06T16:23:41.380Z,1.4
2022-09-06T16:25:44.202Z,1.1
2022-09-06T16:27:47.068Z,1.6
2022-09-06T16:29:49.939Z,1.1
2022-09-06T16:31:52.747Z,1.3
2022-09-06T16:33:55.611Z,1
2022-09-06T16:35:58.441Z,1
2022-09-06T16:38:08.578Z,1.5
2022-09-06T16:40:07.301Z,0.9
2022-09-06T16:42:10.119Z,1.2
2022-09-06T16:44:12.934Z,1.2
2022-09-06T16:46:15.881Z,1.6
2022-09-06T16:48:18.628Z,1.6
2022-09-06T16:50:21.506Z,1.4
2022-09-06T16:52:27.445Z,1.6
2022-09-06T16:54:30.317Z,1.5
2022-09-06T16:56:33.225Z,1.8
2022-09-06T16:58:36.043Z,1.7
2022-09-06T17:00:38.940Z,1.6
2022-09-06T17:04:44.734Z,0.9
2022-09-06T17:08:53.550Z,1.7
2022-09-06T17:10:56.447Z,1.3
2022-09-06T17:11:59.463Z,1.6
2022-09-06T17:14:02.318Z,1.2
2022-09-06T17:16:05.231Z,1.4
2022-09-06T17:18:09.688Z,1.3
2022-09-06T17:20:15.640Z,1.2
2022-09-06T17:22:18.532Z,1.4
2022-09-06T17:24:21.463Z,1.7
2022-09-06T17:26:24.405Z,1.6
2022-09-06T17:28:27.371Z,1.2
2022-09-06T17:30:30.301Z,1.6
2022-09-06T17:32:33.225Z,1.4
2022-09-06T17:34:39.225Z,1.6
2022-09-06T17:36:42.176Z,1.9
2022-09-06T17:38:45.929Z,1.9
2022-09-06T17:40:48.074Z,1.7
2022-09-06T17:42:51.020Z,1.7
2022-09-06T17:44:54.004Z,1.9
2022-09-06T17:49:02.996Z,2
2022-09-06T17:51:05.974Z,1.6
2022-09-06T17:53:08.935Z,2
2022-09-06T17:55:11.930Z,1.3
2022-09-06T17:57:14.905Z,1.2
2022-09-06T17:59:17.922Z,1.9
2022-09-06T18:01:20.995Z,1.5
2022-09-06T18:03:27.022Z,1.2
2022-09-06T18:07:33.034Z,1.7
2022-09-06T18:09:56.628Z,2.5
2022-09-06T18:14:02.668Z,1.7
2022-09-06T18:16:08.776Z,2.2
2022-09-06T18:18:11.740Z,1.9
2022-09-06T18:20:14.754Z,1.2
2022-09-06T18:22:17.796Z,2.2
2022-09-06T18:26:23.844Z,1.8
2022-09-06T18:34:38.989Z,2.2
2022-09-06T18:36:42.038Z,2.6
2022-09-06T18:42:51.164Z,1.8
2022-09-06T18:44:57.234Z,2.1
2022-09-06T18:49:03.281Z,2.4
2022-09-06T18:51:06.285Z,2.2
2022-09-06T18:55:12.339Z,1.7
2022-09-06T18:57:15.331Z,2.1
2022-09-06T18:59:21.413Z,2.4
2022-09-06T19:01:24.555Z,2.4
2022-09-06T19:04:30.468Z,2.6
2022-09-06T19:06:33.495Z,2.6
2022-09-06T19:08:36.490Z,3.3
2022-09-06T19:12:46.883Z,2.8
2022-09-06T19:14:48.583Z,2.9
2022-09-06T19:16:51.822Z,3.8
2022-09-06T19:18:54.625Z,4.3
2022-09-06T19:20:57.673Z,3.9
2022-09-06T19:23:00.712Z,3.9
2022-09-06T19:25:03.734Z,3.6
2022-09-06T19:27:09.794Z,4.2
2022-09-06T19:29:12.809Z,5.1
2022-09-06T19:31:15.966Z,4.3
2022-09-06T19:35:21.934Z,3.7
2022-09-06T19:41:34.107Z,4.6
2022-09-06T19:49:46.368Z,4.9
2022-09-06T19:53:52.491Z,5.7
2022-09-06T19:55:58.616Z,6.5
2022-09-06T19:58:01.674Z,5.6
2022-09-06T20:01:07.851Z,6.7
2022-09-06T20:03:10.916Z,6.9
2022-09-06T20:05:13.979Z,6.8
2022-09-06T20:07:17.079Z,6.8
2022-09-06T20:09:23.188Z,6.7
2022-09-06T20:11:26.281Z,7.2
2022-09-06T20:13:29.365Z,6.8
2022-09-06T20:15:32.483Z,7.1
2022-09-06T20:17:35.621Z,7
2022-09-06T20:19:38.692Z,5.1
2022-09-06T20:21:41.796Z,6.1
2022-09-06T20:23:47.937Z,6.9
2022-09-06T20:27:54.165Z,8.1
2022-09-06T20:29:57.264Z,9.4
2022-09-06T20:34:03.519Z,9.5
2022-09-06T20:36:06.660Z,8.9
2022-09-06T20:38:12.795Z,10.1
2022-09-06T20:40:15.934Z,9.1
2022-09-06T20:42:19.072Z,9.8
2022-09-06T20:44:22.245Z,9
2022-09-06T20:46:25.508Z,9.9
2022-09-06T20:48:28.622Z,11
2022-09-06T20:52:37.863Z,10.9
2022-09-06T20:54:41.028Z,10.9
2022-09-06T20:56:44.165Z,10
2022-09-06T20:57:47.281Z,11.2
2022-09-06T20:59:50.426Z,9.6
2022-09-06T21:01:53.686Z,10.7
2022-09-06T21:03:56.908Z,11.3
2022-09-06T21:08:06.095Z,9.6
2022-09-06T21:12:12.432Z,11.1
2022-09-06T21:14:15.595Z,11.8
2022-09-06T21:16:23.910Z,10.9
2022-09-06T21:18:21.963Z,10.7
2022-09-06T21:20:28.170Z,13
2022-09-06T21:22:31.347Z,12.3
2022-09-06T21:24:34.519Z,12
2022-09-06T21:26:37.719Z,13.7
2022-09-06T21:28:40.928Z,12.7
2022-09-06T21:30:44.103Z,13.5
2022-09-06T21:32:47.318Z,14.5
2022-09-06T21:34:53.527Z,15.7
2022-09-06T21:36:56.755Z,14
2022-09-06T21:38:59.940Z,13.8
2022-09-06T21:41:03.179Z,13.5
2022-09-06T21:43:06.422Z,15.4
2022-09-06T21:45:09.606Z,14.4
2022-09-06T21:47:12.858Z,14.2
2022-09-06T21:51:22.279Z,15
2022-09-06T21:53:25.518Z,13.5
2022-09-06T21:57:52.564Z,14.9
2022-09-06T21:59:55.861Z,14
2022-09-06T22:02:02.148Z,15.3
2022-09-06T22:10:15.067Z,12.4
2022-09-06T22:12:18.283Z,13.4
2022-09-06T22:18:31.242Z,13.9
2022-09-06T22:20:34.258Z,14.1
2022-09-06T22:22:37.533Z,13.3
2022-09-06T22:24:40.878Z,13.4
2022-09-06T22:26:44.205Z,12
2022-09-06T22:28:47.478Z,13.9
2022-09-06T22:30:53.932Z,13.8
2022-09-06T22:32:57.273Z,13.3
2022-09-06T22:35:00.605Z,13.1
2022-09-06T22:37:04.144Z,11.9
2022-09-06T22:39:07.314Z,11.6
2022-09-06T22:41:10.582Z,12.2
2022-09-06T22:43:13.803Z,11.1
2022-09-06T22:45:20.160Z,14
2022-09-06T22:47:23.425Z,12.4
2022-09-06T22:49:26.803Z,11.9
2022-09-06T22:50:30.028Z,12
2022-09-06T22:52:33.274Z,12.6
2022-09-06T22:54:36.510Z,13.6
2022-09-06T22:56:39.786Z,11.9
2022-09-06T22:58:46.201Z,12.8
2022-09-06T23:00:49.684Z,11.2
2022-09-06T23:02:52.872Z,12.1
2022-09-06T23:04:56.288Z,11.6
2022-09-06T23:06:59.483Z,12.2
2022-09-06T23:09:02.825Z,11.2
2022-09-06T23:11:06.068Z,12.3
2022-09-06T23:13:17.642Z,11.4
2022-09-06T23:15:17.201Z,11.3
2022-09-06T23:21:26.951Z,9.2
2022-09-06T23:27:39.683Z,9.3
2022-09-06T23:29:42.927Z,10.2
2022-09-06T23:31:46.195Z,9.2
2022-09-06T23:33:49.415Z,8.6
2022-09-06T23:35:52.620Z,7.3
2022-09-06T23:37:55.871Z,7.1
2022-09-06T23:39:59.184Z,7.6
2022-09-06T23:42:05.593Z,6.6
2022-09-06T23:44:08.928Z,7.5
2022-09-06T23:47:15.333Z,8
2022-09-06T23:49:18.682Z,8.4
2022-09-06T23:51:22.052Z,9.4
2022-09-06T23:53:25.438Z,7.8
2022-09-06T23:55:31.930Z,8.1
2022-09-06T23:57:35.279Z,8
